• Join FlightAware (Why Join?)
  • Login
  • US Flag 
04:52AM EDT


 

Airport Tracker/Info


-or-


 

Live Flight TrackerFlight Track Log ✈ UAL4888 ✈ 12-Oct-2013 ✈ KIAD - KORF

Flight Track Log - Related Links

Times and Time Zones

All times are in EDT time to prevent confusion due to time zone crossing. See the UAL4888 flight status page for this flight to view local times or setup timezone preferences in your user account.

Time Position Orientation Groundspeed Altitude Reporting Facility
EDT Latitude Longitude Course Direction KTS MPH feet Rate Location/Type
10:15PM 38.9333 -77.5333 218° Southwest 198 228 2,000  Level Potomac TRACON
10:16PM 38.9167 -77.5833 247° West 217 250 3,300 2,040 Climbing Potomac TRACON
10:17PM 38.8667 -77.6667 232° Southwest 242 278 5,700 1,920 Climbing Potomac TRACON
10:18PM 38.8333 -77.7167 229° Southwest 250 288 7,000 1,620 Climbing Potomac TRACON
10:19PM 38.5012 -77.1796 214° Southwest  Level Estimated
10:19PM 38.7667 -77.7500 201° Southwest 262 302 9,000  Level Potomac TRACON
10:20PM 38.4496 -77.2881 239° Southwest  Level FlightAware Approximate
10:20PM 38.7000 -77.7833 201° Southwest 285 328 10,000  Level Potomac TRACON
10:21PM 38.3629 -77.2261 218° Southwest  Level Estimated
10:21PM 38.5858 -77.8492 204° Southwest 328 377 10,000  Level Washington Center
10:22PM 38.5036 -77.8919 202° Southwest 328 377 10,000 180 Level Washington Center
10:23PM 38.4214 -77.9369 203° Southwest 328 377 10,400 600 Climbing Washington Center
10:24PM 38.3372 -77.9794 202° Southwest 334 384 11,300 900 Climbing Washington Center
10:25PM 38.2503 -77.9503 165° South 310 357 12,300 840 Climbing Washington Center
10:26PM 38.1633 -77.9131 161° South 315 362 13,000 300 Climbing Washington Center
10:27PM 38.0722 -77.8758 162° South 323 372 13,000  Level Washington Center
10:28PM 37.9811 -77.8389 162° South 345 397 13,000  Level Washington Center
10:29PM 37.8922 -77.7994 161° South 345 397 13,000  Level Washington Center
10:30PM 37.8331 -77.7347 139° Southeast 340 391 13,000  Level Washington Center
10:31PM 37.8056 -77.6261 108° East 299 344 13,000  Level Washington Center
10:32PM 37.7678 -77.5200 114° Southeast 309 356 13,000  Level Washington Center
10:33PM 37.7256 -77.4139 117° Southeast 327 376 13,000 -60 Level Washington Center
10:34PM 37.6856 -77.3106 116° Southeast 336 387 12,900  Descending Washington Center
10:34PM 37.6856 -77.3106 116° Southeast 327 376 13,000 60 Climbing Washington Center
10:35PM 37.6411 -77.1994 117° Southeast 336 387 13,000  Level Washington Center
10:36PM 37.6028 -77.1017 116° Southeast 327 376 13,100 -120 Climbing Washington Center
10:36PM 37.5986 -77.0964 135° Southeast 334 384 12,900  Descending Washington Center
10:37PM 37.5603 -76.9961 116° Southeast 327 376 13,100 60 Climbing Washington Center
10:37PM 37.5542 -76.9828 120° Southeast 336 387 13,000  Descending Washington Center
10:38PM 37.5156 -76.8800 115° Southeast 327 376 13,100 -120 Climbing Washington Center
10:39PM 37.4603 -76.7850 126° Southeast 342 394 12,800 -780 Descending Washington Center
10:40PM 37.3772 -76.7314 153° Southeast 326 375 11,600 -1,260 Descending Washington Center
10:41PM 37.3689 -76.7286 165° South 339 390 11,400 -1,380 Descending Washington Center
10:41PM 37.2986 -76.6831 153° Southeast 321 369 10,300 -1,440 Descending Washington Center
10:42PM 37.2903 -76.6803 165° South 306 352 10,000 -1,380 Descending Washington Center
10:42PM 37.2258 -76.6431 155° Southeast 304 350 8,900 -1,380 Descending Washington Center
10:43PM 37.2114 -76.6350 156° South 270 311 8,500 -1,380 Descending Washington Center
10:43PM 37.1617 -76.6003 151° Southeast 281 323 7,600 -1,260 Descending Washington Center
10:44PM 37.1428 -76.5950 167° South 264 304 7,200 -1,320 Descending Washington Center
10:45PM 37.0744 -76.5550 155° Southeast 260 299 5,900 -1,320 Descending Washington Center
10:46PM 37.0183 -76.5206 154° Southeast 255 293 4,700 -1,320 Descending Washington Center
10:47PM 36.9600 -76.4833 153° Southeast 232 267 3,400 -1,080 Descending Washington Center
10:48PM 36.9019 -76.4489 155° Southeast 237 273 2,600 -600 Descending Washington Center
10:49PM 36.8417 -76.4119 154° Southeast 239 275 2,300 -300 Descending Washington Center
10:50PM 36.7878 -76.3725 150° Southeast 198 228 2,000 -360 Descending Washington Center
10:51PM 36.7797 -76.3206 101° East 171 197 1,600 -240 Descending Washington Center
10:52PM 36.8156 -76.2794 43° Northeast 170 196 1,600 -360 Level Washington Center
10:53PM 36.8489 -76.2511 34° Northeast 110 127 1,000 -600 Descending Washington Center
10:54PM 36.8742 -76.2253 39° Northeast 119 137 400 -600 Descending Washington Center